createdAt,value
2018-07-19T00:00:11.289Z,2.80
2018-07-19T00:02:40.647Z,2.73
2018-07-19T00:05:10.106Z,3.37
2018-07-19T00:07:39.468Z,2.97
2018-07-19T00:10:08.768Z,3.50
2018-07-19T00:12:38.067Z,3.63
2018-07-19T00:15:07.733Z,4.20
2018-07-19T00:17:37.232Z,4.00
2018-07-19T00:20:07.149Z,3.20
2018-07-19T00:22:36.538Z,3.10
2018-07-19T00:25:05.872Z,3.00
2018-07-19T00:27:35.192Z,2.77
2018-07-19T00:30:05.154Z,2.80
2018-07-19T00:32:34.461Z,3.40
2018-07-19T00:35:03.561Z,3.10
2018-07-19T00:37:32.880Z,3.40
2018-07-19T00:40:02.466Z,3.47
2018-07-19T00:42:32.307Z,4.60
2018-07-19T00:45:01.607Z,3.40
2018-07-19T00:47:30.918Z,3.70
2018-07-19T00:50:00.211Z,4.13
2018-07-19T00:52:29.520Z,4.83
2018-07-19T00:54:58.836Z,4.93
2018-07-19T00:57:28.144Z,5.07
2018-07-19T00:59:57.510Z,5.17
2018-07-19T01:02:26.808Z,5.10
2018-07-19T01:04:56.185Z,5.57
2018-07-19T01:07:25.482Z,4.40
2018-07-19T01:09:54.800Z,5.47
2018-07-19T01:12:24.152Z,5.20
2018-07-19T01:14:53.300Z,4.47
2018-07-19T01:17:22.396Z,4.83
2018-07-19T01:19:51.662Z,4.67
2018-07-19T01:22:20.984Z,5.13
2018-07-19T01:24:50.387Z,5.40
2018-07-19T01:27:19.904Z,5.67
2018-07-19T01:29:49.204Z,5.77
2018-07-19T01:32:18.525Z,6.27
2018-07-19T01:34:47.818Z,4.63
2018-07-19T01:37:16.908Z,4.47
2018-07-19T01:39:45.982Z,5.93
2018-07-19T01:42:28.008Z,6.60
2018-07-19T01:44:57.347Z,5.17
2018-07-19T01:47:26.720Z,6.03
2018-07-19T01:49:56.132Z,6.33
2018-07-19T01:52:25.289Z,7.00
2018-07-19T01:54:54.584Z,6.27
2018-07-19T01:57:23.690Z,5.67
2018-07-19T01:59:53.014Z,6.93
2018-07-19T02:02:28.308Z,7.40
2018-07-19T02:05:03.035Z,6.30
2018-07-19T02:07:32.331Z,8.47
2018-07-19T02:10:01.640Z,7.00
2018-07-19T02:12:31.377Z,7.50
2018-07-19T02:15:00.673Z,7.00
2018-07-19T02:17:29.960Z,7.67
2018-07-19T02:19:59.367Z,7.63
2018-07-19T02:22:28.616Z,6.57
2018-07-19T02:24:57.711Z,6.43
2018-07-19T02:27:27.013Z,6.90
2018-07-19T02:29:56.311Z,7.10
2018-07-19T02:32:25.612Z,6.27
2018-07-19T02:34:54.740Z,7.40
2018-07-19T02:37:24.033Z,6.90
2018-07-19T02:39:53.128Z,7.23
2018-07-19T02:42:22.234Z,6.73
2018-07-19T02:44:52.005Z,7.13
2018-07-19T02:47:21.131Z,6.33
2018-07-19T02:49:50.426Z,6.53
2018-07-19T02:52:19.651Z,6.17
2018-07-19T02:54:48.975Z,5.40
2018-07-19T02:57:18.346Z,5.30
2018-07-19T02:59:47.638Z,5.40
2018-07-19T03:02:17.012Z,4.87
2018-07-19T03:04:46.382Z,8.50
2018-07-19T03:07:15.538Z,6.70
2018-07-19T03:09:45.045Z,7.93
2018-07-19T03:12:14.345Z,7.30
2018-07-19T03:14:43.669Z,7.17
2018-07-19T03:17:13.066Z,7.33
2018-07-19T03:19:42.458Z,6.43
2018-07-19T03:22:12.338Z,5.87
2018-07-19T03:24:42.076Z,6.17
2018-07-19T03:27:11.243Z,5.67
2018-07-19T03:29:40.575Z,6.53
2018-07-19T03:32:10.375Z,5.87
2018-07-19T03:34:40.697Z,7.00
2018-07-19T03:37:09.910Z,8.67
2018-07-19T03:39:39.308Z,7.80
2018-07-19T03:42:08.624Z,6.27
2018-07-19T03:44:38.022Z,6.27
2018-07-19T03:47:07.314Z,8.30
2018-07-19T03:49:36.615Z,8.10
2018-07-19T03:52:05.955Z,8.37
2018-07-19T03:54:36.482Z,7.47
2018-07-19T03:57:05.927Z,7.03
2018-07-19T03:59:35.221Z,5.83
2018-07-19T04:02:04.609Z,5.93
2018-07-19T04:04:33.883Z,6.50
2018-07-19T04:07:03.219Z,6.97
2018-07-19T04:09:32.635Z,6.90
2018-07-19T04:12:01.803Z,7.13
2018-07-19T04:14:31.128Z,7.80
2018-07-19T04:17:00.485Z,6.70
2018-07-19T04:19:29.815Z,6.30
2018-07-19T04:21:59.112Z,7.93
2018-07-19T04:24:28.454Z,7.00
2018-07-19T04:26:57.788Z,6.57
2018-07-19T04:29:26.898Z,9.83
2018-07-19T04:31:56.183Z,8.03
2018-07-19T04:34:25.606Z,7.80
2018-07-19T04:36:55.430Z,8.93
2018-07-19T04:39:24.753Z,9.47
2018-07-19T04:41:54.118Z,8.67
2018-07-19T04:44:23.588Z,8.40
2018-07-19T04:46:57.192Z,6.93
2018-07-19T04:49:27.824Z,9.50
2018-07-19T04:51:56.928Z,7.27
2018-07-19T04:54:26.238Z,7.17
2018-07-19T04:56:55.551Z,6.87
2018-07-19T04:59:24.960Z,6.53
2018-07-19T05:01:54.323Z,5.93
2018-07-19T05:04:23.621Z,5.57
2018-07-19T05:06:52.906Z,6.73
2018-07-19T05:09:22.216Z,6.17
2018-07-19T05:11:51.539Z,5.47
2018-07-19T05:14:20.948Z,5.50
2018-07-19T05:16:50.248Z,5.00
2018-07-19T05:19:19.520Z,7.97
2018-07-19T05:21:49.170Z,6.87
2018-07-19T05:24:18.299Z,5.60
2018-07-19T05:26:47.667Z,5.30
2018-07-19T05:29:16.783Z,4.67
2018-07-19T05:31:46.083Z,5.67
2018-07-19T05:34:15.247Z,5.13
2018-07-19T05:36:44.543Z,5.27
2018-07-19T05:39:14.187Z,4.60
2018-07-19T05:41:43.763Z,5.30
2018-07-19T05:44:13.151Z,5.30
2018-07-19T05:46:42.439Z,6.20
2018-07-19T05:49:11.548Z,4.57
2018-07-19T05:51:40.955Z,5.10
2018-07-19T05:54:10.663Z,5.63
2018-07-19T05:56:39.944Z,5.13
2018-07-19T05:59:09.272Z,3.67
2018-07-19T06:01:38.612Z,3.90
2018-07-19T06:04:07.947Z,4.70
2018-07-19T06:06:37.247Z,3.87
2018-07-19T06:09:10.321Z,4.80
2018-07-19T06:11:39.888Z,4.77
2018-07-19T06:14:09.197Z,4.23
2018-07-19T06:16:38.471Z,4.30
2018-07-19T06:19:07.789Z,5.47
2018-07-19T06:21:37.151Z,4.57
2018-07-19T06:24:06.491Z,4.10
2018-07-19T06:26:35.862Z,4.40
2018-07-19T06:29:05.249Z,4.00
2018-07-19T06:31:34.723Z,4.03
2018-07-19T06:34:03.949Z,3.37
2018-07-19T06:36:33.239Z,3.23
2018-07-19T06:39:02.525Z,3.73
2018-07-19T06:41:31.845Z,2.80
2018-07-19T06:44:01.253Z,3.10
2018-07-19T06:46:30.555Z,2.73
2018-07-19T06:49:00.859Z,2.30
2018-07-19T06:51:29.977Z,2.33
2018-07-19T06:53:59.272Z,2.30
2018-07-19T06:56:28.653Z,2.10
2018-07-19T06:58:58.216Z,2.37
2018-07-19T07:01:27.371Z,2.90
2018-07-19T07:03:56.759Z,2.37
2018-07-19T07:06:26.176Z,2.27
2018-07-19T07:08:55.473Z,3.00
2018-07-19T07:11:24.744Z,2.70
2018-07-19T07:13:54.063Z,3.37
2018-07-19T07:16:23.383Z,3.27
2018-07-19T07:18:53.191Z,4.43
2018-07-19T07:21:22.810Z,7.60
2018-07-19T07:23:52.207Z,6.70
2018-07-19T07:26:21.415Z,6.90
2018-07-19T07:28:50.696Z,6.80
2018-07-19T07:31:20.092Z,6.03
2018-07-19T07:41:33.553Z,6.43
2018-07-19T07:44:03.029Z,5.73
2018-07-19T07:46:32.287Z,4.90
2018-07-19T07:49:01.433Z,5.90
2018-07-19T07:51:30.772Z,4.60
2018-07-19T07:54:00.056Z,3.90
2018-07-19T07:56:29.266Z,4.50
2018-07-19T07:58:58.571Z,3.30
2018-07-19T08:01:27.643Z,3.13
2018-07-19T08:03:56.955Z,3.57
2018-07-19T08:06:26.231Z,2.67
2018-07-19T08:08:55.316Z,2.50
2018-07-19T08:11:24.772Z,2.47
2018-07-19T08:13:54.046Z,2.73
2018-07-19T08:16:23.327Z,2.60
2018-07-19T08:18:52.679Z,2.70
2018-07-19T08:21:22.040Z,2.67
2018-07-19T08:23:51.403Z,2.57
2018-07-19T08:26:20.752Z,2.40
2018-07-19T08:28:50.103Z,2.17
2018-07-19T08:31:19.772Z,3.60
2018-07-19T08:33:49.230Z,2.43
2018-07-19T08:36:18.594Z,2.27
2018-07-19T08:38:47.683Z,2.70
2018-07-19T08:41:16.951Z,2.43
2018-07-19T08:43:51.553Z,2.70
2018-07-19T08:46:20.892Z,3.50
2018-07-19T08:48:50.217Z,2.30
2018-07-19T08:51:19.482Z,2.70
2018-07-19T08:53:48.804Z,3.03
2018-07-19T08:58:47.213Z,2.77
2018-07-19T09:01:16.580Z,3.17
2018-07-19T09:03:45.680Z,2.80
2018-07-19T09:06:14.996Z,3.43
2018-07-19T09:08:44.316Z,2.90
2018-07-19T09:11:13.632Z,2.50
2018-07-19T09:13:42.791Z,2.40
2018-07-19T09:16:12.060Z,2.07
2018-07-19T09:18:41.404Z,2.10
2018-07-19T09:21:10.734Z,2.90
2018-07-19T09:23:40.094Z,2.17
2018-07-19T09:26:09.208Z,2.27
2018-07-19T09:28:38.483Z,2.97
2018-07-19T09:31:07.609Z,2.50
2018-07-19T09:33:36.908Z,2.70
2018-07-19T09:36:06.208Z,2.87
2018-07-19T09:38:35.659Z,2.03
2018-07-19T09:41:05.016Z,2.50
2018-07-19T09:43:34.397Z,2.60
2018-07-19T09:46:03.816Z,2.30
2018-07-19T09:48:35.973Z,2.23
2018-07-19T09:51:05.275Z,2.23
2018-07-19T09:53:34.614Z,2.47
2018-07-19T09:56:08.816Z,2.23
2018-07-19T09:58:40.136Z,2.20
2018-07-19T10:01:24.972Z,2.20
2018-07-19T10:03:54.480Z,1.90
2018-07-19T10:06:24.016Z,1.80
2018-07-19T10:08:53.348Z,1.80
2018-07-19T10:11:22.646Z,2.40
2018-07-19T10:13:52.084Z,2.60
2018-07-19T10:16:21.432Z,2.83
2018-07-19T10:18:50.745Z,1.97
2018-07-19T10:21:24.152Z,2.00
2018-07-19T10:23:53.552Z,2.17
2018-07-19T10:26:23.153Z,2.30
2018-07-19T10:28:52.827Z,2.30
2018-07-19T10:31:22.304Z,2.27
2018-07-19T10:33:51.692Z,2.50
2018-07-19T10:36:21.389Z,2.47
2018-07-19T10:38:50.623Z,1.90
2018-07-19T10:41:20.039Z,2.20
2018-07-19T10:43:49.498Z,2.23
2018-07-19T10:46:19.280Z,2.50
2018-07-19T10:48:48.681Z,2.33
2018-07-19T10:51:17.893Z,2.50
2018-07-19T10:53:47.086Z,2.87
2018-07-19T10:56:16.276Z,2.37
2018-07-19T10:58:45.513Z,2.80
2018-07-19T11:01:14.689Z,2.30
2018-07-19T11:03:44.566Z,2.53
2018-07-19T11:06:13.742Z,2.53
2018-07-19T11:08:43.168Z,2.10
2018-07-19T11:11:12.498Z,2.27
2018-07-19T11:13:41.864Z,2.27
2018-07-19T11:16:11.089Z,2.20
2018-07-19T11:18:40.333Z,2.37
2018-07-19T11:21:09.656Z,2.30
2018-07-19T11:23:38.744Z,2.00
2018-07-19T11:26:07.915Z,1.90
2018-07-19T11:28:37.212Z,2.17
2018-07-19T11:31:06.464Z,1.83
2018-07-19T11:33:35.788Z,2.23
2018-07-19T11:36:05.003Z,2.43
2018-07-19T11:38:34.292Z,3.50
2018-07-19T11:41:03.696Z,2.77
2018-07-19T11:43:32.962Z,4.90
2018-07-19T11:46:02.094Z,5.47
2018-07-19T11:48:31.210Z,3.80
2018-07-19T11:51:00.446Z,3.03
2018-07-19T11:53:29.604Z,3.57
2018-07-19T11:55:58.774Z,2.70
2018-07-19T11:58:28.091Z,2.43
2018-07-19T12:00:57.502Z,1.93
2018-07-19T12:03:26.599Z,2.43
2018-07-19T12:05:55.706Z,2.57
2018-07-19T12:08:24.802Z,2.53
2018-07-19T12:10:54.074Z,1.97
2018-07-19T12:13:23.280Z,2.30
2018-07-19T12:15:52.484Z,2.40
2018-07-19T12:18:21.600Z,2.33
2018-07-19T12:20:50.733Z,1.97
2018-07-19T12:23:20.342Z,1.60
2018-07-19T12:25:49.764Z,2.07
2018-07-19T12:28:18.863Z,1.80
2018-07-19T12:30:48.176Z,1.63
2018-07-19T12:33:20.280Z,1.90
2018-07-19T12:35:49.451Z,3.27
2018-07-19T12:38:18.764Z,3.00
2018-07-19T12:40:48.257Z,2.57
2018-07-19T12:43:17.547Z,2.40
2018-07-19T12:45:46.739Z,2.40
2018-07-19T12:48:15.848Z,1.90
2018-07-19T12:50:44.964Z,2.17
2018-07-19T12:53:14.132Z,2.27
2018-07-19T12:55:43.340Z,2.00
2018-07-19T12:58:12.589Z,1.70
2018-07-19T13:00:41.824Z,1.83
2018-07-19T13:03:10.924Z,1.70
2018-07-19T13:05:40.067Z,1.30
2018-07-19T13:08:09.212Z,1.30
2018-07-19T13:10:38.344Z,1.47
2018-07-19T13:13:07.902Z,1.20
2018-07-19T13:15:37.717Z,1.03
2018-07-19T13:18:06.985Z,1.17
2018-07-19T13:20:36.318Z,0.97
2018-07-19T13:23:05.557Z,1.10
2018-07-19T13:25:34.829Z,1.27
2018-07-19T13:28:04.050Z,1.10
2018-07-19T13:30:33.267Z,0.93
2018-07-19T13:33:02.575Z,1.03
2018-07-19T13:35:31.783Z,0.80
2018-07-19T13:38:01.043Z,0.80
2018-07-19T13:40:30.414Z,0.80
2018-07-19T13:42:59.766Z,0.60
2018-07-19T13:45:29.130Z,0.90
2018-07-19T13:47:58.756Z,0.80
2018-07-19T13:50:28.204Z,0.80
2018-07-19T13:54:12.200Z,0.80
2018-07-19T13:56:42.690Z,0.70
2018-07-19T13:59:12.347Z,0.80
2018-07-19T14:01:42.120Z,0.73
2018-07-19T14:04:11.863Z,0.60
2018-07-19T14:06:41.558Z,0.70
2018-07-19T14:09:14.043Z,0.97
2018-07-19T14:11:43.509Z,0.80
2018-07-19T14:14:12.973Z,0.77
2018-07-19T14:16:42.349Z,0.77
2018-07-19T14:19:11.723Z,1.00
2018-07-19T14:21:41.002Z,0.67
2018-07-19T14:24:10.353Z,0.90
2018-07-19T14:26:39.641Z,1.03
2018-07-19T14:29:08.953Z,1.00
2018-07-19T14:31:38.262Z,1.03
2018-07-19T14:34:07.503Z,1.07
2018-07-19T14:36:36.758Z,0.90
2018-07-19T14:39:09.147Z,1.20
2018-07-19T14:41:38.621Z,1.23
2018-07-19T14:44:08.353Z,1.30
2018-07-19T14:46:37.671Z,1.17
2018-07-19T14:49:06.949Z,1.17
2018-07-19T14:51:36.192Z,1.27
2018-07-19T14:54:05.514Z,1.27
2018-07-19T14:56:34.909Z,1.20
2018-07-19T14:59:04.220Z,1.47
2018-07-19T15:01:33.474Z,1.80
2018-07-19T15:04:02.823Z,1.47
2018-07-19T15:06:32.312Z,1.20
2018-07-19T15:09:01.864Z,1.33
2018-07-19T15:11:31.220Z,1.47
2018-07-19T15:14:00.443Z,1.40
2018-07-19T15:16:29.742Z,1.27
2018-07-19T15:18:59.036Z,1.37
2018-07-19T15:21:28.275Z,1.53
2018-07-19T15:23:57.648Z,1.23
2018-07-19T15:26:26.963Z,1.43
2018-07-19T15:28:56.416Z,1.73
2018-07-19T15:31:25.999Z,1.30
2018-07-19T15:33:55.393Z,1.40
2018-07-19T15:36:24.770Z,1.40
2018-07-19T15:38:54.164Z,1.40
2018-07-19T15:41:23.630Z,1.77
2018-07-19T15:43:53.073Z,1.50
2018-07-19T15:46:22.491Z,1.20
2018-07-19T15:48:51.825Z,1.43
2018-07-19T15:51:21.308Z,1.53
2018-07-19T15:53:50.803Z,1.40
2018-07-19T15:56:20.197Z,1.30
2018-07-19T15:58:49.709Z,1.20
2018-07-19T16:01:19.099Z,1.20
2018-07-19T16:03:48.643Z,1.57
2018-07-19T16:06:18.114Z,1.63
2018-07-19T16:08:47.571Z,1.93
2018-07-19T16:11:17.244Z,1.80
2018-07-19T16:13:46.688Z,1.70
2018-07-19T16:16:16.455Z,2.37
2018-07-19T16:18:45.858Z,1.20
2018-07-19T16:21:15.245Z,1.60
2018-07-19T16:23:44.610Z,1.73
2018-07-19T16:26:14.074Z,1.50
2018-07-19T16:28:43.583Z,1.70
2018-07-19T16:31:13.185Z,1.70
2018-07-19T16:33:42.531Z,1.70
2018-07-19T16:36:11.881Z,1.57
2018-07-19T16:38:41.461Z,1.70
2018-07-19T16:41:10.851Z,1.53
2018-07-19T16:43:40.192Z,1.60
2018-07-19T16:46:09.717Z,1.47
2018-07-19T16:48:39.071Z,1.53
2018-07-19T16:51:08.494Z,1.33
2018-07-19T16:53:37.915Z,1.40
2018-07-19T16:56:07.701Z,1.60
2018-07-19T16:58:37.092Z,1.43
2018-07-19T17:01:06.612Z,1.50
2018-07-19T17:03:35.819Z,1.87
2018-07-19T17:06:05.029Z,1.47
2018-07-19T17:08:34.115Z,1.40
2018-07-19T17:11:03.224Z,1.57
2018-07-19T17:13:32.307Z,1.30
2018-07-19T17:16:01.441Z,1.90
2018-07-19T17:18:30.738Z,1.37
2018-07-19T17:21:00.182Z,1.57
2018-07-19T17:23:29.451Z,1.40
2018-07-19T17:25:58.602Z,1.23
2018-07-19T17:28:27.714Z,1.50
2018-07-19T17:30:56.808Z,1.57
2018-07-19T17:33:26.057Z,1.67
2018-07-19T17:35:55.176Z,1.70
2018-07-19T17:38:24.247Z,1.80
2018-07-19T17:40:53.387Z,1.60
2018-07-19T17:43:22.490Z,1.40
2018-07-19T17:45:51.874Z,1.57
2018-07-19T17:48:20.957Z,1.67
2018-07-19T17:50:50.050Z,1.70
2018-07-19T17:53:19.155Z,2.10
2018-07-19T17:55:48.245Z,1.80
2018-07-19T17:58:17.335Z,1.97
2018-07-19T18:00:46.444Z,1.87
2018-07-19T18:03:15.542Z,1.70
2018-07-19T18:05:44.612Z,1.80
2018-07-19T18:08:13.757Z,2.23
2018-07-19T18:10:42.930Z,1.90
2018-07-19T18:13:12.031Z,2.03
2018-07-19T18:15:41.089Z,1.80
2018-07-19T18:18:10.207Z,1.90
2018-07-19T18:20:39.432Z,1.90
2018-07-19T18:23:08.612Z,2.20
2018-07-19T18:25:37.672Z,2.20
2018-07-19T18:28:07.069Z,2.33
2018-07-19T18:30:36.203Z,1.90
2018-07-19T18:33:05.506Z,2.40
2018-07-19T18:35:34.611Z,2.13
2018-07-19T18:38:03.908Z,2.20
2018-07-19T18:40:32.989Z,1.90
2018-07-19T18:43:02.110Z,2.00
2018-07-19T18:45:31.184Z,2.20
2018-07-19T18:48:00.399Z,1.93
2018-07-19T18:50:29.667Z,1.90
2018-07-19T18:52:58.735Z,2.60
2018-07-19T18:55:27.810Z,2.43
2018-07-19T18:57:56.879Z,2.50
2018-07-19T19:00:25.955Z,2.33
2018-07-19T19:02:55.091Z,2.40
2018-07-19T19:05:24.172Z,2.47
2018-07-19T19:07:53.244Z,2.60
2018-07-19T19:10:22.348Z,2.33
2018-07-19T19:12:51.485Z,2.47
2018-07-19T19:15:20.777Z,2.80
2018-07-19T19:17:49.935Z,3.13
2018-07-19T19:20:19.027Z,3.00
2018-07-19T19:22:48.131Z,2.83
2018-07-19T19:25:17.219Z,3.20
2018-07-19T19:27:46.545Z,2.93
2018-07-19T19:30:15.620Z,3.13
2018-07-19T19:32:44.725Z,3.23
2018-07-19T19:35:13.871Z,2.73
2018-07-19T19:37:42.951Z,2.93
2018-07-19T19:40:12.111Z,2.93
2018-07-19T19:42:41.205Z,3.03
2018-07-19T19:45:10.354Z,2.90
2018-07-19T19:47:39.420Z,2.60
2018-07-19T19:50:08.645Z,2.40
2018-07-19T19:52:37.812Z,3.03
2018-07-19T19:55:06.893Z,2.23
2018-07-19T19:57:36.007Z,2.00
2018-07-19T20:00:05.937Z,2.30
2018-07-19T20:02:35.046Z,3.40
2018-07-19T20:05:04.190Z,2.53
2018-07-19T20:07:33.301Z,2.53
2018-07-19T20:10:02.401Z,2.83
2018-07-19T20:12:31.501Z,2.57
2018-07-19T20:15:00.591Z,2.07
2018-07-19T20:17:29.664Z,2.30
2018-07-19T20:19:58.762Z,2.30
2018-07-19T20:22:27.889Z,2.23
2018-07-19T20:24:56.951Z,2.40
2018-07-19T20:27:26.052Z,2.57
2018-07-19T20:29:55.255Z,2.33
2018-07-19T20:32:24.350Z,2.13
2018-07-19T20:34:53.463Z,2.20
2018-07-19T20:37:22.535Z,2.47
2018-07-19T20:39:51.619Z,2.50
2018-07-19T20:42:20.869Z,2.50
2018-07-19T20:44:49.977Z,2.13
2018-07-19T20:47:19.067Z,2.30
2018-07-19T20:49:48.231Z,1.90
2018-07-19T20:52:17.512Z,2.30
2018-07-19T20:54:46.620Z,1.80
2018-07-19T20:57:15.707Z,2.40
2018-07-19T20:59:44.776Z,2.10
2018-07-19T21:02:13.895Z,2.23
2018-07-19T21:04:42.985Z,2.10
2018-07-19T21:07:12.088Z,2.60
2018-07-19T21:09:41.331Z,2.10
2018-07-19T21:12:10.609Z,2.30
2018-07-19T21:14:39.693Z,2.53
2018-07-19T21:17:08.767Z,1.90
2018-07-19T21:19:37.854Z,2.10
2018-07-19T21:22:07.083Z,2.20
2018-07-19T21:24:36.170Z,2.20
2018-07-19T21:27:05.380Z,2.40
2018-07-19T21:29:34.459Z,2.77
2018-07-19T21:32:03.865Z,2.90
2018-07-19T21:34:33.020Z,2.10
2018-07-19T21:37:02.173Z,2.80
2018-07-19T21:39:31.256Z,2.17
2018-07-19T21:42:00.346Z,2.30
2018-07-19T21:44:29.447Z,2.33
2018-07-19T21:46:58.568Z,2.70
2018-07-19T21:49:27.732Z,2.53
2018-07-19T21:51:57.006Z,2.33
2018-07-19T21:54:26.080Z,2.30
2018-07-19T21:56:55.164Z,2.40
2018-07-19T21:59:24.252Z,2.67
2018-07-19T22:01:53.332Z,2.30
2018-07-19T22:04:22.422Z,2.10
2018-07-19T22:06:51.483Z,2.67
2018-07-19T22:09:22.524Z,2.33
2018-07-19T22:11:52.041Z,2.10
2018-07-19T22:14:21.105Z,2.43
2018-07-19T22:16:50.294Z,2.03
2018-07-19T22:19:19.506Z,2.50
2018-07-19T22:21:48.668Z,2.40
2018-07-19T22:24:17.990Z,2.10
2018-07-19T22:26:47.058Z,2.60
2018-07-19T22:29:16.125Z,2.10
2018-07-19T22:31:45.232Z,2.50
2018-07-19T22:34:14.341Z,3.03
2018-07-19T22:36:43.434Z,2.50
2018-07-19T22:39:12.783Z,2.30
2018-07-19T22:41:41.932Z,2.37
2018-07-19T22:44:11.037Z,2.10
2018-07-19T22:46:40.138Z,2.63
2018-07-19T22:49:09.237Z,2.10
2018-07-19T22:51:38.303Z,2.30
2018-07-19T22:54:07.411Z,2.50
2018-07-19T22:56:36.507Z,2.20
2018-07-19T22:59:05.597Z,2.23
2018-07-19T23:01:34.736Z,2.30
2018-07-19T23:04:03.976Z,2.10
2018-07-19T23:06:33.061Z,2.40
2018-07-19T23:09:02.136Z,2.40
2018-07-19T23:11:31.306Z,2.63
2018-07-19T23:14:00.376Z,2.57
2018-07-19T23:16:29.453Z,2.80
2018-07-19T23:18:58.520Z,2.37
2018-07-19T23:21:27.645Z,2.20
2018-07-19T23:23:56.776Z,2.47
2018-07-19T23:26:26.176Z,2.77
2018-07-19T23:28:55.272Z,2.90
2018-07-19T23:31:24.388Z,2.80
2018-07-19T23:33:53.477Z,2.20
2018-07-19T23:36:27.426Z,2.53
2018-07-19T23:39:16.574Z,2.47
2018-07-19T23:42:49.816Z,2.40
2018-07-19T23:45:21.752Z,2.53
2018-07-19T23:47:52.034Z,2.57
2018-07-19T23:50:21.088Z,2.60
2018-07-19T23:52:50.396Z,2.10
2018-07-19T23:55:19.458Z,2.57
2018-07-19T23:57:48.604Z,2.40
